createdAt,value
2022-08-11T00:00:46.759Z,56.12
2022-08-11T00:01:46.869Z,55.71
2022-08-11T00:02:46.823Z,55.91
2022-08-11T00:03:46.719Z,55.62
2022-08-11T00:04:46.723Z,56.02
2022-08-11T00:05:46.727Z,56.62
2022-08-11T00:06:46.749Z,55.71
2022-08-11T00:07:46.905Z,55.62
2022-08-11T00:08:46.668Z,55.82
2022-08-11T00:09:46.665Z,56.12
2022-08-11T00:10:46.649Z,56.32
2022-08-11T00:11:46.689Z,55.91
2022-08-11T00:12:46.632Z,55.71
2022-08-11T00:13:46.616Z,56.32
2022-08-11T00:14:46.732Z,56.62
2022-08-11T00:15:49.139Z,56.52
2022-08-11T00:16:46.583Z,56.45
2022-08-11T00:17:46.568Z,56.85
2022-08-11T00:18:46.543Z,56.65
2022-08-11T00:20:15.170Z,57.35
2022-08-11T00:20:47.576Z,56.95
2022-08-11T00:22:04.061Z,56.75
2022-08-11T00:22:47.652Z,56.75
2022-08-11T00:23:46.516Z,56.75
2022-08-11T00:24:53.423Z,57.35
2022-08-11T00:25:47.459Z,56.85
2022-08-11T00:26:46.585Z,56.55
2022-08-11T00:27:46.486Z,57.05
2022-08-11T00:28:46.537Z,57.15
2022-08-11T00:29:51.814Z,56.85
2022-08-11T00:30:47.404Z,56.95
2022-08-11T00:31:50.387Z,57.35
2022-08-11T00:32:46.378Z,57.56
2022-08-11T00:33:46.363Z,57.86
2022-08-11T00:34:46.334Z,57.45
2022-08-11T00:35:55.152Z,57.56
2022-08-11T00:36:47.332Z,57.56
2022-08-11T00:37:46.327Z,57.56
2022-08-11T00:38:46.361Z,57.76
2022-08-11T00:39:46.334Z,57.48
2022-08-11T00:40:46.263Z,57.35
2022-08-11T00:41:46.251Z,58.19
2022-08-11T00:42:47.290Z,57.78
2022-08-11T00:43:46.338Z,58.09
2022-08-11T00:44:46.210Z,58.29
2022-08-11T00:45:46.199Z,57.78
2022-08-11T00:46:46.206Z,58.29
2022-08-11T00:47:46.318Z,58.39
2022-08-11T00:48:46.192Z,58.19
2022-08-11T00:49:46.140Z,58.69
2022-08-11T00:50:46.181Z,57.89
2022-08-11T00:52:02.228Z,57.68
2022-08-11T00:52:47.127Z,58.09
2022-08-11T00:53:46.775Z,58.29
2022-08-11T00:54:46.098Z,58.19
2022-08-11T00:55:47.226Z,58.59
2022-08-11T00:56:47.059Z,58.29
2022-08-11T00:57:46.048Z,58.49
2022-08-11T00:58:50.892Z,58.89
2022-08-11T00:59:47.021Z,58.49
2022-08-11T01:00:46.156Z,58.49
2022-08-11T01:01:45.990Z,58.09
2022-08-11T01:02:45.999Z,58.69
2022-08-11T01:03:46.026Z,58.59
2022-08-11T01:04:45.967Z,58.49
2022-08-11T01:05:46.977Z,58.69
2022-08-11T01:06:45.933Z,58.59
2022-08-11T01:08:02.614Z,58.80
2022-08-11T01:08:46.914Z,59.40
2022-08-11T01:09:45.907Z,59.12
2022-08-11T01:10:45.876Z,58.92
2022-08-11T01:11:55.135Z,59.22
2022-08-11T01:12:46.897Z,59.12
2022-08-11T01:13:45.905Z,59.22
2022-08-11T01:14:45.825Z,59.22
2022-08-11T01:15:56.985Z,59.22
2022-08-11T01:16:46.828Z,59.42
2022-08-11T01:17:45.814Z,59.42
2022-08-11T01:18:45.787Z,59.33
2022-08-11T01:20:45.542Z,59.02
2022-08-11T01:20:49.566Z,59.33
2022-08-11T01:21:45.803Z,59.33
2022-08-11T01:22:45.752Z,59.22
2022-08-11T01:23:45.723Z,59.63
2022-08-11T01:24:45.703Z,59.63
2022-08-11T01:25:56.452Z,58.92
2022-08-11T01:26:46.697Z,58.92
2022-08-11T01:27:45.730Z,59.73
2022-08-11T01:28:45.671Z,59.63
2022-08-11T01:29:49.075Z,60.33
2022-08-11T01:30:45.663Z,59.83
2022-08-11T01:31:45.698Z,59.83
2022-08-11T01:32:45.620Z,60.24
2022-08-11T01:33:45.603Z,59.73
2022-08-11T01:34:45.571Z,60.33
2022-08-11T01:35:45.541Z,60.24
2022-08-11T01:36:45.545Z,60.13
2022-08-11T01:37:46.532Z,60.24
2022-08-11T01:38:45.551Z,59.86
2022-08-11T01:39:45.527Z,60.44
2022-08-11T01:40:45.528Z,60.53
2022-08-11T01:41:45.491Z,60.66
2022-08-11T01:42:45.512Z,59.96
2022-08-11T01:43:45.479Z,60.46
2022-08-11T01:44:45.429Z,60.26
2022-08-11T01:45:45.419Z,60.06
2022-08-11T01:46:45.412Z,60.16
2022-08-11T01:47:53.286Z,60.06
2022-08-11T01:48:46.401Z,60.57
2022-08-11T01:50:08.094Z,61.07
2022-08-11T01:50:46.406Z,60.16
2022-08-11T01:51:45.448Z,60.36
2022-08-11T01:52:45.450Z,60.06
2022-08-11T01:53:45.387Z,59.96
2022-08-11T01:54:45.324Z,59.96
2022-08-11T01:55:45.313Z,60.26
2022-08-11T01:56:45.297Z,60.06
2022-08-11T01:57:45.283Z,60.46
2022-08-11T01:58:45.305Z,60.46
2022-08-11T01:59:45.249Z,60.16
2022-08-11T02:00:45.368Z,60.36
2022-08-11T02:01:45.279Z,60.06
2022-08-11T02:02:45.196Z,60.57
2022-08-11T02:03:45.209Z,60.57
2022-08-11T02:04:45.208Z,60.46
2022-08-11T02:05:45.171Z,60.36
2022-08-11T02:06:45.187Z,60.77
2022-08-11T02:07:45.133Z,59.86
2022-08-11T02:08:50.785Z,60.26
2022-08-11T02:09:49.733Z,60.66
2022-08-11T02:10:50.427Z,60.57
2022-08-11T02:11:45.108Z,60.57
2022-08-11T02:12:49.911Z,60.77
2022-08-11T02:13:46.147Z,60.46
2022-08-11T02:14:53.583Z,60.66
2022-08-11T02:15:46.069Z,61.30
2022-08-11T02:16:45.048Z,61.20
2022-08-11T02:17:45.023Z,61.30
2022-08-11T02:18:45.047Z,61.00
2022-08-11T02:19:45.386Z,61.10
2022-08-11T02:20:44.988Z,60.80
2022-08-11T02:21:45.032Z,60.49
2022-08-11T02:22:44.942Z,60.69
2022-08-11T02:24:07.223Z,60.89
2022-08-11T02:24:45.922Z,61.91
2022-08-11T02:25:44.938Z,61.71
2022-08-11T02:26:44.903Z,61.40
2022-08-11T02:27:44.880Z,61.80
2022-08-11T02:28:46.818Z,61.60
2022-08-11T02:29:44.865Z,62.21
2022-08-11T02:30:44.852Z,61.71
2022-08-11T02:32:23.842Z,61.51
2022-08-11T02:32:45.860Z,61.40
2022-08-11T02:33:44.804Z,61.30
2022-08-11T02:34:44.834Z,62.01
2022-08-11T02:35:45.816Z,61.71
2022-08-11T02:36:44.758Z,61.60
2022-08-11T02:37:44.748Z,61.63
2022-08-11T02:38:44.735Z,61.73
2022-08-11T02:39:44.750Z,61.83
2022-08-11T02:40:44.749Z,61.83
2022-08-11T02:41:44.712Z,62.14
2022-08-11T02:42:44.803Z,61.53
2022-08-11T02:43:48.070Z,61.94
2022-08-11T02:44:45.660Z,61.83
2022-08-11T02:45:44.639Z,62.14
2022-08-11T02:46:45.357Z,61.73
2022-08-11T02:47:44.732Z,61.83
2022-08-11T02:48:44.656Z,61.63
2022-08-11T02:49:44.586Z,62.95
2022-08-11T02:50:44.583Z,62.34
2022-08-11T02:51:44.637Z,62.44
2022-08-11T02:52:44.555Z,62.24
2022-08-11T02:53:44.559Z,62.74
2022-08-11T02:54:45.540Z,62.04
2022-08-11T02:55:57.195Z,63.15
2022-08-11T02:56:45.627Z,63.05
2022-08-11T02:57:44.476Z,62.34
2022-08-11T02:58:44.485Z,62.85
2022-08-11T02:59:44.474Z,63.08
2022-08-11T03:00:44.521Z,62.37
2022-08-11T03:01:44.515Z,62.57
2022-08-11T03:02:45.154Z,63.28
2022-08-11T03:03:44.409Z,62.67
2022-08-11T03:04:44.443Z,62.47
2022-08-11T03:05:44.403Z,62.57
2022-08-11T03:06:44.403Z,62.77
2022-08-11T03:07:44.365Z,62.98
2022-08-11T03:08:44.370Z,62.77
2022-08-11T03:09:44.326Z,62.77
2022-08-11T03:10:44.332Z,62.87
2022-08-11T03:11:44.300Z,62.87
2022-08-11T03:12:44.373Z,62.87
2022-08-11T03:13:44.300Z,63.38
2022-08-11T03:14:44.283Z,63.08
2022-08-11T03:15:44.620Z,63.28
2022-08-11T03:16:45.014Z,63.18
2022-08-11T03:17:44.222Z,62.98
2022-08-11T03:18:44.274Z,63.28
2022-08-11T03:19:44.212Z,63.78
2022-08-11T03:20:44.273Z,64.29
2022-08-11T03:22:01.159Z,63.89
2022-08-11T03:22:45.208Z,63.18
2022-08-11T03:23:44.150Z,63.38
2022-08-11T03:24:44.155Z,63.38
2022-08-11T03:25:44.139Z,63.78
2022-08-11T03:26:44.217Z,63.89
2022-08-11T03:27:44.139Z,63.78
2022-08-11T03:28:44.088Z,63.38
2022-08-11T03:29:44.153Z,63.18
2022-08-11T03:30:44.077Z,63.58
2022-08-11T03:31:44.633Z,63.48
2022-08-11T03:32:44.046Z,63.48
2022-08-11T03:33:44.029Z,63.78
2022-08-11T03:34:44.038Z,63.89
2022-08-11T03:35:44.013Z,63.68
2022-08-11T03:37:06.829Z,64.22
2022-08-11T03:37:45.033Z,64.42
2022-08-11T03:38:44.031Z,63.31
2022-08-11T03:39:51.104Z,63.92
2022-08-11T03:40:45.020Z,64.52
2022-08-11T03:42:02.854Z,64.12
2022-08-11T03:42:44.927Z,63.41
2022-08-11T03:43:45.698Z,64.32
2022-08-11T03:44:44.928Z,64.12
2022-08-11T03:45:43.877Z,64.52
2022-08-11T03:46:43.906Z,64.42
2022-08-11T03:47:52.284Z,63.92
2022-08-11T03:48:44.953Z,63.71
2022-08-11T03:49:43.826Z,64.02
2022-08-11T03:50:43.845Z,63.92
2022-08-11T03:51:44.813Z,64.62
2022-08-11T03:52:44.804Z,64.42
2022-08-11T03:53:43.824Z,63.92
2022-08-11T03:54:43.809Z,64.22
2022-08-11T03:55:43.759Z,64.52
2022-08-11T03:56:43.789Z,64.42
2022-08-11T03:57:43.742Z,63.92
2022-08-11T03:58:43.864Z,64.22
2022-08-11T03:59:43.704Z,64.32
2022-08-11T04:00:43.715Z,64.73
2022-08-11T04:01:43.762Z,64.52
2022-08-11T04:02:43.674Z,64.32
2022-08-11T04:03:43.718Z,64.76
2022-08-11T04:04:45.319Z,64.65
2022-08-11T04:05:44.634Z,64.86
2022-08-11T04:06:43.695Z,64.55
2022-08-11T04:07:43.615Z,65.36
2022-08-11T04:08:43.622Z,65.26
2022-08-11T04:09:43.605Z,66.27
2022-08-11T04:10:43.597Z,65.06
2022-08-11T04:11:43.570Z,64.55
2022-08-11T04:12:47.597Z,64.65
2022-08-11T04:13:43.561Z,65.16
2022-08-11T04:14:43.565Z,64.96
2022-08-11T04:15:43.565Z,64.96
2022-08-11T04:16:43.570Z,65.36
2022-08-11T04:17:43.515Z,65.36
2022-08-11T04:18:43.479Z,65.16
2022-08-11T04:19:43.465Z,65.26
2022-08-11T04:20:43.477Z,65.36
2022-08-11T04:21:43.556Z,65.77
2022-08-11T04:22:43.420Z,65.26
2022-08-11T04:24:13.239Z,65.16
2022-08-11T04:24:49.741Z,65.16
2022-08-11T04:25:58.076Z,65.26
2022-08-11T04:26:44.399Z,65.47
2022-08-11T04:27:43.402Z,65.87
2022-08-11T04:28:49.860Z,65.97
2022-08-11T04:30:03.330Z,65.77
2022-08-11T04:30:44.319Z,65.56
2022-08-11T04:31:50.517Z,65.47
2022-08-11T04:32:44.307Z,65.67
2022-08-11T04:33:43.471Z,65.97
2022-08-11T04:34:43.284Z,66.17
2022-08-11T04:35:47.182Z,65.97
2022-08-11T04:36:44.275Z,65.77
2022-08-11T04:37:43.297Z,65.56
2022-08-11T04:38:43.239Z,66.17
2022-08-11T04:39:43.299Z,65.56
2022-08-11T04:40:43.198Z,65.56
2022-08-11T04:41:43.176Z,66.27
2022-08-11T04:42:43.185Z,66.27
2022-08-11T04:44:02.701Z,66.27
2022-08-11T04:44:44.147Z,66.07
2022-08-11T04:45:43.164Z,65.87
2022-08-11T04:46:43.133Z,65.97
2022-08-11T04:48:01.759Z,66.17
2022-08-11T04:48:44.139Z,66.07
2022-08-11T04:49:43.095Z,66.27
2022-08-11T04:50:43.192Z,66.78
2022-08-11T04:51:44.084Z,66.27
2022-08-11T04:52:43.265Z,66.47
2022-08-11T04:53:43.049Z,66.88
2022-08-11T04:54:43.013Z,66.78
2022-08-11T04:55:43.043Z,65.67
2022-08-11T04:56:46.892Z,66.47
2022-08-11T04:57:43.077Z,66.38
2022-08-11T04:58:42.980Z,66.27
2022-08-11T04:59:43.092Z,66.67
2022-08-11T05:00:42.941Z,65.84
2022-08-11T05:01:43.042Z,65.64
2022-08-11T05:02:42.974Z,65.53
2022-08-11T05:03:42.911Z,65.64
2022-08-11T05:04:42.901Z,66.24
2022-08-11T05:05:56.602Z,65.84
2022-08-11T05:06:43.906Z,64.83
2022-08-11T05:07:42.870Z,65.43
2022-08-11T05:08:42.840Z,67.02
2022-08-11T05:09:42.861Z,67.32
2022-08-11T05:10:43.262Z,66.82
2022-08-11T05:11:43.017Z,64.19
2022-08-11T05:12:42.790Z,65.10
2022-08-11T05:13:42.788Z,65.61
2022-08-11T05:14:42.804Z,64.90
2022-08-11T05:15:44.685Z,64.26
2022-08-11T05:16:42.737Z,64.36
2022-08-11T05:17:42.784Z,64.06
2022-08-11T05:18:42.708Z,64.36
2022-08-11T05:19:42.797Z,65.57
2022-08-11T05:20:42.701Z,64.36
2022-08-11T05:21:44.854Z,65.07
2022-08-11T05:22:42.659Z,66.35
2022-08-11T05:23:42.649Z,66.35
2022-08-11T05:24:42.658Z,64.23
2022-08-11T05:26:43.465Z,66.25
2022-08-11T05:26:49.237Z,64.73
2022-08-11T05:27:43.618Z,64.50
2022-08-11T05:28:42.598Z,63.59
2022-08-11T05:29:42.599Z,63.09
2022-08-11T05:30:42.559Z,62.88
2022-08-11T05:31:42.587Z,64.10
2022-08-11T05:32:42.536Z,63.29
2022-08-11T05:33:42.538Z,65.21
2022-08-11T05:34:42.528Z,62.99
2022-08-11T05:36:01.668Z,63.09
2022-08-11T05:36:43.589Z,61.47
2022-08-11T05:37:42.474Z,62.38
2022-08-11T05:38:42.475Z,63.26
2022-08-11T05:39:42.608Z,62.45
2022-08-11T05:40:42.465Z,63.26
2022-08-11T05:41:43.425Z,61.95
2022-08-11T05:42:42.653Z,61.95
2022-08-11T05:44:20.710Z,62.25
2022-08-11T05:44:43.465Z,62.25
2022-08-11T05:45:57.258Z,60.84
2022-08-11T05:46:43.415Z,62.32
2022-08-11T05:47:42.353Z,61.61
2022-08-11T05:48:42.352Z,63.03
2022-08-11T05:49:42.374Z,62.73
2022-08-11T05:50:42.322Z,62.93
2022-08-11T05:51:54.478Z,63.33
2022-08-11T05:52:43.449Z,61.01
2022-08-11T05:53:46.384Z,62.63
2022-08-11T05:54:42.287Z,61.72
2022-08-11T05:56:01.631Z,62.70
2022-08-11T05:56:43.231Z,63.30
2022-08-11T05:57:51.572Z,62.49
2022-08-11T05:58:43.308Z,60.98
2022-08-11T05:59:42.249Z,63.00
2022-08-11T06:00:42.174Z,61.89
2022-08-11T06:01:42.228Z,60.88
2022-08-11T06:02:42.189Z,59.77
2022-08-11T06:03:42.156Z,60.48
2022-08-11T06:04:43.152Z,60.48
2022-08-11T06:05:44.030Z,60.48
2022-08-11T06:06:45.412Z,60.38
2022-08-11T06:07:48.654Z,60.35
2022-08-11T06:08:43.112Z,60.25
2022-08-11T06:09:42.078Z,59.44
2022-08-11T06:10:42.050Z,59.64
2022-08-11T06:11:43.539Z,58.84
2022-08-11T06:12:42.091Z,58.51
2022-08-11T06:13:42.029Z,59.52
2022-08-11T06:14:42.026Z,58.31
2022-08-11T06:15:41.986Z,60.02
2022-08-11T06:16:42.016Z,58.41
2022-08-11T06:17:41.993Z,58.07
2022-08-11T06:18:41.961Z,57.78
2022-08-11T06:19:41.938Z,57.17
2022-08-11T06:20:41.964Z,58.38
2022-08-11T06:21:41.928Z,58.58
2022-08-11T06:22:41.915Z,58.25
2022-08-11T06:23:41.888Z,57.15
2022-08-11T06:24:41.874Z,56.34
2022-08-11T06:25:41.875Z,56.74
2022-08-11T06:27:01.623Z,56.54
2022-08-11T06:27:42.836Z,57.22
2022-08-11T06:28:41.823Z,57.32
2022-08-11T06:29:47.814Z,56.92
2022-08-11T06:30:42.938Z,56.71
2022-08-11T06:31:41.786Z,56.71
2022-08-11T06:32:41.868Z,57.82
2022-08-11T06:33:41.755Z,57.12
2022-08-11T06:34:41.798Z,55.79
2022-08-11T06:35:41.795Z,56.38
2022-08-11T06:36:41.762Z,56.59
2022-08-11T06:37:41.704Z,57.39
2022-08-11T06:38:41.683Z,56.29
2022-08-11T06:39:41.769Z,55.79
2022-08-11T06:40:41.673Z,55.79
2022-08-11T06:41:41.663Z,56.29
2022-08-11T06:42:41.656Z,55.66
2022-08-11T06:43:41.642Z,56.46
2022-08-11T06:44:42.698Z,54.75
2022-08-11T06:45:41.591Z,54.85
2022-08-11T06:46:41.635Z,55.76
2022-08-11T06:47:41.598Z,55.16
2022-08-11T06:48:41.562Z,54.83
2022-08-11T06:49:41.541Z,55.03
2022-08-11T06:50:41.531Z,55.53
2022-08-11T06:51:41.780Z,56.54
2022-08-11T06:52:41.646Z,55.53
2022-08-11T06:53:41.519Z,54.93
2022-08-11T06:54:41.581Z,54.43
2022-08-11T06:55:57.616Z,54.22
2022-08-11T06:56:42.464Z,54.60
2022-08-11T06:57:41.458Z,54.40
2022-08-11T06:58:41.430Z,54.00
2022-08-11T06:59:41.434Z,54.60
2022-08-11T07:00:41.525Z,54.20
2022-08-11T07:01:41.440Z,53.90
2022-08-11T07:02:41.635Z,53.90
2022-08-11T07:03:41.388Z,54.07
2022-08-11T07:04:41.385Z,53.87
2022-08-11T07:05:41.378Z,53.27
2022-08-11T07:06:50.606Z,53.87
2022-08-11T07:07:42.327Z,53.57
2022-08-11T07:08:42.126Z,53.67
2022-08-11T07:09:41.305Z,53.64
2022-08-11T07:10:41.295Z,53.34
2022-08-11T07:11:41.302Z,53.45
2022-08-11T07:12:41.266Z,52.84
2022-08-11T07:13:45.374Z,52.64
2022-08-11T07:14:41.255Z,53.05
2022-08-11T07:16:10.940Z,53.45
2022-08-11T07:16:42.232Z,53.02
2022-08-11T07:17:41.222Z,53.62
2022-08-11T07:18:41.186Z,53.22
2022-08-11T07:19:41.186Z,52.72
2022-08-11T07:20:41.153Z,53.52
2022-08-11T07:22:01.279Z,53.72
2022-08-11T07:22:42.132Z,53.92
2022-08-11T07:23:41.140Z,54.02
2022-08-11T07:25:02.096Z,52.82
2022-08-11T07:25:43.473Z,53.02
2022-08-11T07:26:41.083Z,53.42
2022-08-11T07:27:41.063Z,54.52
2022-08-11T07:28:41.073Z,53.72
2022-08-11T07:29:41.061Z,52.80
2022-08-11T07:30:41.020Z,52.59
2022-08-11T07:31:41.042Z,51.79
2022-08-11T07:32:41.023Z,52.09
2022-08-11T07:34:07.984Z,53.00
2022-08-11T07:34:41.973Z,53.19
2022-08-11T07:35:41.045Z,54.50
2022-08-11T07:36:40.941Z,54.00
2022-08-11T07:37:40.970Z,51.79
2022-08-11T07:38:40.931Z,52.29
2022-08-11T07:39:40.992Z,51.59
2022-08-11T07:40:40.935Z,51.99
2022-08-11T07:41:40.945Z,52.37
2022-08-11T07:42:40.878Z,52.27
2022-08-11T07:43:40.869Z,53.87
2022-08-11T07:44:40.997Z,52.87
2022-08-11T07:45:41.000Z,52.87
2022-08-11T07:46:40.876Z,53.47
2022-08-11T07:47:40.838Z,53.27
2022-08-11T07:48:40.797Z,54.57
2022-08-11T07:49:40.789Z,54.57
2022-08-11T07:50:40.778Z,53.67
2022-08-11T07:51:40.779Z,53.07
2022-08-11T07:52:40.949Z,54.07
2022-08-11T07:53:57.751Z,52.17
2022-08-11T07:54:41.727Z,52.07
2022-08-11T07:55:51.018Z,53.67
2022-08-11T07:56:55.106Z,53.27
2022-08-11T07:57:57.040Z,53.17
2022-08-11T07:58:45.665Z,52.07
2022-08-11T08:00:00.654Z,53.85
2022-08-11T08:00:41.658Z,52.34
2022-08-11T08:01:40.775Z,52.55
2022-08-11T08:02:40.654Z,53.64
2022-08-11T08:03:53.661Z,53.64
2022-08-11T08:04:45.400Z,54.24
2022-08-11T08:05:41.695Z,54.35
2022-08-11T08:06:40.565Z,52.74
2022-08-11T08:07:40.586Z,52.24
2022-08-11T08:08:40.545Z,52.74
2022-08-11T08:09:40.630Z,52.42
2022-08-11T08:10:40.763Z,51.82
2022-08-11T08:11:40.524Z,51.32
2022-08-11T08:12:40.539Z,52.92
2022-08-11T08:13:40.702Z,51.22
2022-08-11T08:14:40.540Z,51.62
2022-08-11T08:15:40.453Z,53.30
2022-08-11T08:16:40.471Z,53.79
2022-08-11T08:17:40.502Z,51.69
2022-08-11T08:18:40.433Z,52.59
2022-08-11T08:19:40.443Z,52.89
2022-08-11T08:20:40.407Z,53.09
2022-08-11T08:21:40.402Z,53.89
2022-08-11T08:22:45.113Z,52.80
2022-08-11T08:23:41.382Z,52.59
2022-08-11T08:24:40.391Z,53.99
2022-08-11T08:25:40.334Z,53.89
2022-08-11T08:26:40.341Z,52.29
2022-08-11T08:27:40.342Z,52.99
2022-08-11T08:28:40.290Z,51.37
2022-08-11T08:29:40.368Z,50.67
2022-08-11T08:30:40.261Z,52.17
2022-08-11T08:31:40.254Z,53.07
2022-08-11T08:32:40.361Z,53.57
2022-08-11T08:33:40.230Z,51.97
2022-08-11T08:34:40.226Z,51.47
2022-08-11T08:35:55.926Z,50.35
2022-08-11T08:36:41.321Z,51.34
2022-08-11T08:37:45.848Z,51.75
2022-08-11T08:38:41.169Z,50.54
2022-08-11T08:39:40.216Z,50.22
2022-08-11T08:40:40.148Z,52.12
2022-08-11T08:41:40.182Z,50.42
2022-08-11T08:42:44.875Z,50.82
2022-08-11T08:43:49.242Z,50.22
2022-08-11T08:44:41.842Z,51.32
2022-08-11T08:45:40.088Z,52.22
2022-08-11T08:46:40.132Z,49.52
2022-08-11T08:47:42.233Z,51.79
2022-08-11T08:48:40.056Z,49.50
2022-08-11T08:49:40.411Z,48.80
2022-08-11T08:50:40.042Z,48.90
2022-08-11T08:52:00.930Z,48.38
2022-08-11T08:52:43.676Z,48.78
2022-08-11T08:53:39.986Z,49.08
2022-08-11T08:54:40.965Z,48.48
2022-08-11T08:55:44.980Z,50.57
2022-08-11T08:56:40.949Z,51.07
2022-08-11T08:57:40.341Z,50.65
2022-08-11T08:58:39.916Z,51.45
2022-08-11T08:59:49.333Z,49.35
2022-08-11T09:00:40.952Z,49.15
2022-08-11T09:01:39.952Z,47.56
2022-08-11T09:02:39.883Z,47.86
2022-08-11T09:04:07.077Z,48.25
2022-08-11T09:04:40.960Z,47.86
2022-08-11T09:05:39.843Z,48.23
2022-08-11T09:06:39.816Z,47.24
2022-08-11T09:07:40.708Z,47.74
2022-08-11T09:08:39.818Z,46.64
2022-08-11T09:09:39.773Z,46.72
2022-08-11T09:10:39.772Z,47.31
2022-08-11T09:11:39.760Z,45.12
2022-08-11T09:12:39.751Z,45.52
2022-08-11T09:13:40.538Z,44.32
2022-08-11T09:14:39.821Z,44.90
2022-08-11T09:15:39.710Z,44.60
2022-08-11T09:16:39.714Z,46.20
2022-08-11T09:17:39.908Z,45.20
2022-08-11T09:18:39.703Z,45.30
2022-08-11T09:19:39.653Z,45.60
2022-08-11T09:20:39.803Z,44.50
2022-08-11T09:21:48.955Z,44.38
2022-08-11T09:22:40.722Z,43.38
2022-08-11T09:24:07.328Z,44.78
2022-08-11T09:24:40.589Z,44.08
2022-08-11T09:25:39.631Z,44.48
2022-08-11T09:26:39.840Z,44.88
2022-08-11T09:27:39.860Z,43.29
2022-08-11T09:28:40.538Z,44.88
2022-08-11T09:29:39.583Z,42.99
2022-08-11T09:30:39.587Z,43.57
2022-08-11T09:31:40.482Z,44.36
2022-08-11T09:32:39.489Z,42.27
2022-08-11T09:33:39.486Z,43.37
2022-08-11T09:34:39.488Z,43.16
2022-08-11T09:35:39.470Z,43.66
2022-08-11T09:36:39.437Z,44.36
2022-08-11T09:37:55.294Z,44.06
2022-08-11T09:38:40.471Z,43.57
2022-08-11T09:39:39.426Z,44.46
2022-08-11T09:40:39.412Z,42.57
2022-08-11T09:42:00.519Z,42.35
2022-08-11T09:42:40.447Z,43.64
2022-08-11T09:43:39.346Z,44.54
2022-08-11T09:44:39.344Z,43.35
2022-08-11T09:45:40.247Z,43.44
2022-08-11T09:46:39.325Z,43.35
2022-08-11T09:47:39.537Z,42.63
2022-08-11T09:48:39.331Z,43.32
2022-08-11T09:49:39.292Z,43.32
2022-08-11T09:50:39.263Z,42.43
2022-08-11T09:51:39.527Z,40.14
2022-08-11T09:52:45.000Z,40.54
2022-08-11T09:53:41.100Z,41.44
2022-08-11T09:54:39.272Z,40.74
2022-08-11T09:55:39.203Z,39.13
2022-08-11T09:56:39.192Z,40.72
2022-08-11T09:57:39.426Z,40.33
2022-08-11T09:58:42.678Z,41.61
2022-08-11T09:59:39.186Z,41.12
2022-08-11T10:00:39.193Z,40.42
2022-08-11T10:01:39.187Z,38.34
2022-08-11T10:02:39.144Z,38.14
2022-08-11T10:03:40.518Z,39.83
2022-08-11T10:04:39.095Z,40.12
2022-08-11T10:05:39.205Z,38.83
2022-08-11T10:06:39.104Z,39.61
2022-08-11T10:07:39.241Z,40.11
2022-08-11T10:08:39.153Z,39.51
2022-08-11T10:09:39.047Z,39.51
2022-08-11T10:10:39.067Z,37.43
2022-08-11T10:11:39.030Z,37.72
2022-08-11T10:12:39.061Z,38.62
2022-08-11T10:14:10.038Z,38.02
2022-08-11T10:14:44.435Z,38.71
2022-08-11T10:15:38.995Z,38.81
2022-08-11T10:16:39.035Z,38.92
2022-08-11T10:17:39.064Z,38.32
2022-08-11T10:18:39.060Z,38.81
2022-08-11T10:19:38.959Z,37.82
2022-08-11T10:20:38.878Z,39.71
2022-08-11T10:21:39.075Z,37.82
2022-08-11T10:22:38.858Z,37.32
2022-08-11T10:24:01.420Z,37.43
2022-08-11T10:24:40.016Z,37.72
2022-08-11T10:25:38.817Z,37.72
2022-08-11T10:26:38.827Z,35.52
2022-08-11T10:28:16.764Z,36.22
2022-08-11T10:29:02.137Z,36.91
2022-08-11T10:29:44.398Z,38.00
2022-08-11T10:30:42.331Z,36.32
2022-08-11T10:31:57.868Z,36.50
2022-08-11T10:32:57.619Z,36.99
2022-08-11T10:33:42.950Z,39.07
2022-08-11T10:34:39.716Z,37.09
2022-08-11T10:35:39.724Z,36.30
2022-08-11T10:36:38.695Z,34.12
2022-08-11T10:38:07.623Z,35.31
2022-08-11T10:38:39.703Z,35.19
2022-08-11T10:39:38.669Z,36.28
2022-08-11T10:40:38.656Z,36.28
2022-08-11T10:41:38.675Z,36.48
2022-08-11T10:42:57.369Z,36.68
2022-08-11T10:44:02.483Z,34.69
2022-08-11T10:44:39.660Z,35.58
2022-08-11T10:45:38.743Z,33.31
2022-08-11T10:46:38.594Z,33.90
2022-08-11T10:47:38.738Z,34.28
2022-08-11T10:48:39.542Z,33.49
2022-08-11T10:49:38.579Z,33.49
2022-08-11T10:50:38.580Z,32.89
2022-08-11T10:51:51.006Z,32.70
2022-08-11T10:52:39.897Z,33.17
2022-08-11T10:53:42.312Z,32.58
2022-08-11T10:54:38.471Z,32.58
2022-08-11T10:55:38.505Z,32.88
2022-08-11T10:56:38.441Z,32.98
2022-08-11T10:57:38.577Z,33.77
2022-08-11T10:58:38.441Z,34.56
2022-08-11T10:59:38.450Z,34.17
2022-08-11T11:00:38.382Z,32.48
2022-08-11T11:01:38.430Z,32.39
2022-08-11T11:02:38.360Z,34.27
2022-08-11T11:03:38.389Z,33.97
2022-08-11T11:04:38.379Z,34.56
2022-08-11T11:05:38.328Z,31.99
2022-08-11T11:06:39.309Z,32.28
2022-08-11T11:07:44.036Z,33.17
2022-08-11T11:08:39.408Z,35.46
2022-08-11T11:09:38.270Z,32.98
2022-08-11T11:10:38.288Z,34.86
2022-08-11T11:11:38.241Z,32.68
2022-08-11T11:12:38.466Z,34.17
2022-08-11T11:13:38.230Z,34.66
2022-08-11T11:14:46.167Z,34.27
2022-08-11T11:15:39.248Z,32.98
2022-08-11T11:16:38.190Z,32.58
2022-08-11T11:17:38.197Z,33.17
2022-08-11T11:18:38.206Z,33.65
2022-08-11T11:19:38.234Z,34.74
2022-08-11T11:20:40.746Z,31.79
2022-08-11T11:21:39.145Z,31.87
2022-08-11T11:22:38.298Z,32.67
2022-08-11T11:23:38.156Z,33.56
2022-08-11T11:24:38.095Z,33.16
2022-08-11T11:25:38.095Z,33.45
2022-08-11T11:26:38.113Z,32.35
2022-08-11T11:27:46.651Z,31.96
2022-08-11T11:28:39.064Z,32.45
2022-08-11T11:29:38.014Z,32.75
2022-08-11T11:30:38.037Z,31.07
2022-08-11T11:31:38.051Z,32.35
2022-08-11T11:32:38.172Z,32.15
2022-08-11T11:34:06.170Z,33.72
2022-08-11T11:34:52.876Z,33.82
2022-08-11T11:35:38.973Z,34.01
2022-08-11T11:36:37.975Z,35.11
2022-08-11T11:37:37.918Z,32.53
2022-08-11T11:38:37.926Z,31.74
2022-08-11T11:39:38.042Z,33.03
2022-08-11T11:40:37.945Z,32.73
2022-08-11T11:41:37.983Z,32.93
2022-08-11T11:42:38.053Z,33.42
2022-08-11T13:13:54.580Z,29.47
2022-08-11T13:14:15.220Z,29.57
2022-08-11T13:15:12.370Z,27.50
2022-08-11T13:16:12.689Z,27.70
2022-08-11T13:17:12.305Z,28.77
2022-08-11T13:18:12.334Z,28.86
2022-08-11T13:19:12.285Z,26.90
2022-08-11T13:20:12.265Z,27.88
2022-08-11T13:21:12.264Z,26.61
2022-08-11T13:22:13.263Z,26.41
2022-08-11T13:23:12.244Z,27.49
2022-08-11T13:24:12.376Z,29.16
2022-08-11T13:25:14.105Z,26.90
2022-08-11T13:26:12.183Z,27.88
2022-08-11T13:27:12.188Z,28.95
2022-08-11T13:28:12.184Z,28.26
2022-08-11T13:29:12.174Z,28.26
2022-08-11T13:30:12.141Z,27.36
2022-08-11T13:31:12.122Z,27.66
2022-08-11T13:32:12.172Z,27.25
2022-08-11T13:33:12.113Z,27.15
2022-08-11T13:34:12.095Z,26.76
2022-08-11T13:35:12.091Z,25.99
2022-08-11T13:36:12.072Z,27.15
2022-08-11T13:37:12.054Z,27.64
2022-08-11T13:38:18.949Z,27.06
2022-08-11T13:39:13.057Z,26.75
2022-08-11T13:40:12.029Z,27.63
2022-08-11T13:43:23.066Z,27.24
2022-08-11T13:44:25.797Z,25.67
2022-08-11T13:45:22.337Z,26.35
2022-08-11T13:46:23.006Z,27.44
2022-08-11T13:47:22.320Z,26.45
2022-08-11T13:48:22.286Z,27.44
2022-08-11T13:49:22.327Z,26.65
2022-08-11T13:50:22.285Z,27.03
2022-08-11T13:51:22.275Z,28.59
2022-08-11T13:52:23.418Z,26.05
2022-08-11T13:53:22.235Z,27.11
2022-08-11T13:54:22.248Z,26.43
2022-08-11T13:55:36.545Z,26.81
2022-08-11T13:56:23.185Z,26.51
2022-08-11T13:58:09.072Z,26.51
2022-08-11T13:58:40.308Z,26.81
2022-08-11T13:59:29.578Z,25.63
2022-08-11T14:00:23.545Z,26.32
2022-08-11T14:02:03.841Z,26.32
2022-08-11T14:02:29.529Z,27.39
2022-08-11T14:03:23.152Z,26.81
2022-08-11T14:04:29.704Z,26.42
2022-08-11T14:05:23.123Z,26.50
2022-08-11T14:06:22.092Z,26.79
2022-08-11T14:07:22.064Z,26.01
2022-08-11T14:08:37.637Z,24.84
2022-08-11T14:09:23.032Z,24.74
2022-08-11T14:10:22.024Z,25.05
2022-08-11T14:12:23.022Z,25.63
2022-08-11T14:12:24.584Z,26.90
2022-08-11T14:13:21.993Z,25.34
2022-08-11T14:14:21.952Z,25.63
2022-08-11T14:15:22.214Z,26.61
2022-08-11T14:16:21.952Z,26.12
2022-08-11T14:17:36.025Z,26.71
2022-08-11T14:18:22.911Z,26.51
2022-08-11T14:19:22.120Z,25.73
2022-08-11T14:20:39.106Z,25.92
2022-08-11T14:21:22.937Z,26.31
2022-08-11T14:22:21.901Z,26.40
2022-08-11T14:23:21.978Z,25.04
2022-08-11T14:24:21.830Z,25.81